Craig Municipal Airport
KCRG : now visible

Airfield :











YOU CAN JOIN US ON...

 
LOGIN :

Register | Disclaimer

   EN    FR    IT 

 









Legend :    VFR   Marginal VFR   IFR   Intensive IFR   Very Intensive IFR
Visi :
Ceiling :
>= 8 km
>= 3000ft
5 to 8 km
1000 to 3000 ft
1500m to 5 km
500 to 1000 ft
800 to 1500m
200 to 500 ft
< 800m
< 200 ft
Symbols :   Thunderstorms  Fog  Heavy snow  Heavy precipitations  Wind > 20 kt






- Airport Elevation : 41 ft


KCRG - Craig Municipal

CURRENT METAR :
  • 100353Z AUTO 32004KT 10SM BKN085 26/23 A2992 RMK AO2 SLP130 T02610228

EXPIRED METARs :
  • 100253Z AUTO 29004KT 10SM SCT065 BKN085 27/23 A2991 RMK AO2 SLP126 T02720228 53011
  • 100153Z 28003KT 10SM SCT075 27/23 A2988 RMK AO2 SLP119 T02670233

TAF KCRG
Valid from the 10 at 02:00 until the 11 at 00:00 UTC


100135Z 1002/1024 28006KT P6SM FEW045 SCT250
FM101400 29005KT P6SM SCT015
FM101800 29007KT P6SM VCTS SCT050CB SCT250
KZJX FIR / North America



MET'MAP, your aeronautical weather chart ! - Copyright ORBIFLY December 2007 - Disclaimer

ORBIFLY MET'MAP TEAM :

Programming & Development : Alexandra Zaïnal
Concept & original design : Baudouin d'Aumeries
Assistance for programming : Marc-Olivier Méhu
Technical & hardware support : Manuel Goepfert

Contact : metmap@orbifly.com




SOURCES & CREDITS :

   NOAA       Earth
Advisory